Weather observations for the past three days for
Appleton Municipal Airport
Imperial (Metric)
Date Time (cdt) Wind (mph) Vis. (mi.) Weather Sky Cond. Temperature (ºF) Relative Humidity Wind Chill (°F) Heat Index (°F) Pressure Precipitation (in)
Air Dwpt 6 hour altimeter (in) sea level (mb) 1 hr 3 hr 6 hr
Max. Min.
02 17:15 SW 17 10.00 Overcast BKN110 OVC140 67.3 28.2 23% 29.83 0.0
02 16:55 W 15 10.00 Overcast BKN110 OVC140 68.4 28.6 23% 29.84 0.0
02 16:35 SW 16 10.00 Overcast BKN110 OVC130 69.3 30.4 24% 29.84 0.0
02 16:15 W 21 10.00 Overcast and Breezy BKN110 OVC140 68.7 29.5 23% 29.86 0.0
02 15:55 W 20 10.00 Overcast OVC110 68.4 27.5 22% 29.86 0.0
02 15:35 SW 17 G 24 10.00 Overcast SCT090 OVC120 69.8 31.1 24% 29.86 0.0
02 15:15 SW 18 G 25 10.00 Overcast OVC130 69.1 29.1 23% 29.88 0.0
02 14:55 W 18 10.00 Overcast OVC130 68.9 27.9 22% 29.89 0.0
02 14:35 W 13 G 23 10.00 Overcast OVC130 67.6 29.5 24% 29.9 0.0
02 14:15 SW 17 10.00 Overcast OVC140 67.8 29.7 24% 29.91 0.0
02 13:55 W 18 G 25 10.00 Mostly Cloudy BKN160 67.6 29.8 24% 29.92 0.0
02 13:35 W 20 G 25 10.00 A Few Clouds FEW180 69.1 29.3 23% 29.92 0.0
02 13:15 W 21 G 25 10.00 A Few Clouds and Breezy FEW300 68.4 30.6 24% 29.93 0.0
02 12:55 W 16 10.00 Fair CLR 68 30.9 68.4 36.9 25% 29.94 0.0
02 12:35 W 17 G 23 10.00 Fair CLR 68 31.1 25% 29.95 0.0
02 12:15 W 20 10.00 Fair CLR 67.3 32 27% 29.96 0.0
02 11:55 W 16 10.00 Fair CLR 65.5 33.1 30% 29.97 0.0
02 11:35 W 16 G 22 10.00 Fair CLR 64.2 32.4 30% 29.98 0.0
02 11:15 W 15 G 22 10.00 Fair CLR 63.1 32 31% 29.98 0.0
02 10:55 SW 15 10.00 Fair CLR 61.7 32.5 34% 30 0.0
02 10:35 SW 14 10.00 Fair CLR 60.1 31.6 34% 30.01 0.0
02 10:15 SW 13 10.00 Fair CLR 58.1 32.2 38% 30.01 0.0
02 09:55 SW 12 10.00 Fair CLR 55.4 31.8 41% 30.02 0.0
02 09:35 W 12 10.00 Fair CLR 53.6 32.4 45% 30.03 0.0
02 09:15 SW 13 10.00 Fair CLR 51.1 31.5 47% 30.04 0.0
02 08:55 SW 10 10.00 Fair CLR 47.5 31.5 54% 43 30.05 0.0
02 08:35 SW 10 10.00 Fair CLR 45.1 31.1 58% 40 30.05 0.0
02 08:15 SW 9 10.00 Fair CLR 43.3 30 59% 39 30.05 0.0
02 07:55 SW 7 10.00 Fair CLR 41.5 30 64% 38 30.06 0.0
02 07:35 SW 6 10.00 Fair CLR 39.9 30.2 68% 36 30.06 0.0
02 07:15 SW 6 9.00 Fair CLR 36.9 28.4 72% 33 30.06 0.0
02 06:55 SW 6 9.00 A Few Clouds FEW090 36.3 28 36.7 32 72% 32 30.06 0.0
02 06:35 SW 6 9.00 A Few Clouds FEW095 36 27.9 72% 32 30.06 0.0
02 06:15 SW 6 9.00 A Few Clouds FEW095 34.9 27.5 74% 30 30.07 0.0
02 05:55 SW 5 10.00 Mostly Cloudy BKN095 34.9 27.9 76% 31 30.07 0.0
02 05:35 SW 5 10.00 Mostly Cloudy BKN090 35.4 28.4 76% 32 30.07 0.0
02 05:15 SW 6 10.00 Mostly Cloudy BKN090 36 28.4 74% 32 30.08 0.0
02 04:55 SW 5 10.00 A Few Clouds FEW095 35.1 28 76% 32 30.08 0.0
02 04:35 SW 6 10.00 Fair CLR 32.5 28 84% 28 30.09 0.0
02 04:15 SW 5 10.00 Fair CLR 32.7 27.5 81% 29 30.09 0.0
02 03:55 SW 5 10.00 Fair CLR 33.6 27.3 78% 30 30.09 0.0
02 03:35 SW 5 10.00 Fair CLR 34.3 28 78% 31 30.09 0.0
02 03:15 W 5 10.00 Fair CLR 32.7 29.7 89% 29 30.09 0.0
02 02:55 SW 3 10.00 Fair CLR 32.4 29.5 89% 30.09 0.0
02 02:35 W 3 10.00 Fair CLR 33.4 29.7 86% 30.09 0.0
02 02:15 Calm 10.00 Fair CLR 32 29.8 92% 30.09 0.0
02 01:55 Calm 10.00 Fair CLR 33.4 29.7 86% 30.1 0.0
02 01:35 Calm 10.00 Fair CLR 35.4 30.2 81% 30.1 0.0
02 01:15 SW 3 10.00 Fair CLR 34.9 29.3 80% 30.1 0.0
02 00:55 Calm 10.00 Fair CLR 35.2 28.8 53.2 35.1 77% 30.1 0.0
02 00:35 W 3 10.00 Fair CLR 36 29.5 77% 30.1 0.0
02 00:15 W 3 10.00 Fair CLR 38.8 29.7 70% 30.11 0.0
01 23:55 Calm 10.00 Fair CLR 37.4 28.6 71% 30.11 0.0
01 23:35 W 5 10.00 Fair CLR 38.7 28.9 68% 36 30.11 0.0
01 23:15 W 5 10.00 Fair CLR 38.3 30.4 73% 35 30.11 0.0
01 22:55 SW 5 10.00 Fair CLR 41 26.2 56% 38 30.11 0.0
01 22:35 W 5 10.00 Fair CLR 41 27 57% 38 30.11 0.0
01 22:15 W 5 10.00 Fair CLR 42.4 26.6 54% 40 30.11 0.0
01 21:55 W 5 10.00 Fair CLR 41.9 27.5 57% 40 30.11 0.0
01 21:35 W 6 10.00 Fair CLR 41.7 28.8 60% 38 30.11 0.0
01 21:15 NW 5 10.00 Fair CLR 44.4 28 53% 42 30.1 0.0
01 20:55 NW 6 10.00 Fair CLR 44.2 27.9 53% 41 30.09 0.0
01 20:35 NW 7 10.00 Fair CLR 45.7 27 48% 43 30.1 0.0
01 20:15 NW 6 10.00 Fair CLR 48.6 26.6 43% 47 30.09 0.0
01 19:55 NW 8 10.00 Fair CLR 50.9 25.5 37% 30.09 0.0
01 19:35 NW 10 10.00 Fair CLR 51.6 25 35% 30.09 0.0
01 19:15 N 12 10.00 Fair CLR 52.5 24.1 33% 30.09 0.0
01 18:55 NW 6 10.00 Fair CLR 52.9 23.7 54.9 48 32% 30.09 0.0
01 18:35 N 6 10.00 Fair CLR 53.2 23.9 32% 30.09 0.0
01 18:15 NW 8 10.00 Fair CLR 52.2 23.7 33% 30.09 0.0
01 17:55 N 8 G 18 10.00 Fair CLR 53.6 23.7 31% 30.09 0.0
01 17:35 NW 7 10.00 Fair CLR 53.1 23.7 32% 30.09 0.0
01 17:15 N 14 10.00 Fair CLR 52.5 25.3 35% 30.09 0.0
01 16:55 NW 8 10.00 Partly Cloudy SCT065 52.3 23.5 33% 30.09 0.0
01 16:35 W 9 G 18 10.00 Mostly Cloudy BKN065 53.8 24.8 33% 30.09 0.0
01 16:15 Vrbl 7 10.00 Mostly Cloudy BKN065 51.8 22.8 32% 30.1 0.0
01 15:55 NW 9 10.00 Partly Cloudy SCT065 53.1 24.4 33% 30.1 0.0
01 15:35 NW 9 10.00 Mostly Cloudy BKN060 52.3 24.1 33% 30.11 0.0
01 15:15 N 8 10.00 Mostly Cloudy BKN060 50.9 24.8 36% 30.11 0.0
01 14:55 NW 10 10.00 Partly Cloudy SCT060 50.5 24.8 37% 30.11 0.0
01 14:35 W 6 10.00 Partly Cloudy SCT055 51.4 25 36% 30.11 0.0
01 14:15 NW 9 10.00 Mostly Cloudy BKN055 51.6 25.7 37% 30.12 0.0
01 13:55 Vrbl 6 10.00 Partly Cloudy SCT055 49.8 25.7 39% 48 30.12 0.0
01 13:35 N 10 10.00 Mostly Cloudy BKN055 48.9 25 39% 45 30.12 0.0
01 13:15 N 12 G 18 10.00 Mostly Cloudy BKN050 49.6 26.2 40% 46 30.13 0.0
01 12:55 N 13 G 17 10.00 Partly Cloudy SCT050 49.6 27 49.8 31.1 41% 45 30.13 0.0
01 12:35 N 14 G 23 10.00 Partly Cloudy SCT050 48.7 26.1 41% 44 30.13 0.0
01 12:15 N 5 10.00 Mostly Cloudy BKN049 47.1 25.3 43% 46 30.13 0.0
01 11:55 N 10 10.00 Mostly Cloudy BKN049 46.9 25.7 44% 43 30.13 0.0
01 11:35 N 9 10.00 Mostly Cloudy BKN048 46.8 25.5 43% 43 30.13 0.0
01 11:15 NW 13 10.00 Mostly Cloudy BKN049 45.5 26.2 47% 40 30.14 0.0
01 10:55 N 12 10.00 Overcast OVC055 45.5 28 51% 40 30.14 0.0
01 10:35 N 9 10.00 Mostly Cloudy BKN055 45.5 29.1 53% 41 30.14 0.0
01 10:15 N 10 10.00 A Few Clouds FEW055 44.2 30.6 59% 39 30.13 0.0
01 09:55 N 9 10.00 Fair CLR 42.4 31.3 65% 38 30.14 0.0
01 09:35 N 9 10.00 Fair CLR 41.4 32.4 70% 36 30.13 0.0
01 09:15 N 8 10.00 Fair CLR 39.7 31.6 73% 35 30.13 0.0
01 08:55 N 8 10.00 Fair CLR 37.4 31.1 78% 32 30.13 0.0
01 08:35 N 9 10.00 Fair CLR 36.7 30.9 80% 31 30.13 0.0
01 08:15 N 12 10.00 Fair CLR 35.2 29.3 79% 28 30.13 0.0
01 07:55 N 9 9.00 A Few Clouds FEW050 33.8 28.9 82% 27 30.12 0.0
01 07:35 NW 9 9.00 Partly Cloudy SCT050 32 28 85% 25 30.11 0.0
01 07:15 NW 8 10.00 Mostly Cloudy BKN050 31.3 27.5 86% 25 30.11 0.0
01 06:55 NW 9 9.00 A Few Clouds FEW050 30.9 27.5 38.1 29.5 87% 24 30.1 0.0
01 06:35 NW 10 10.00 Fair CLR 30.9 27.1 86% 23 30.1 0.0
01 06:15 NW 9 9.00 Fair CLR 30 27.3 90% 22 30.09 0.0
01 05:55 NW 7 10.00 Fair CLR 30.2 27.5 90% 24 30.09 0.0
01 05:35 NW 7 10.00 Fair CLR 30.6 27.5 88% 25 30.08 0.0
01 05:15 NW 8 10.00 Fair CLR 31.3 27.7 87% 25 30.08 0.0
01 04:55 NW 8 10.00 Fair CLR 31.8 28 86% 25 30.08 0.0
01 04:35 NW 12 10.00 Fair CLR 32.2 28.2 85% 24 30.08 0.0
01 04:15 NW 10 10.00 Fair CLR 32.4 28 84% 25 30.07 0.0
01 03:55 N 9 10.00 Fair CLR 32.4 28.6 86% 25 30.07 0.0
01 03:35 N 9 10.00 A Few Clouds FEW055 32.5 29.1 87% 26 30.07 0.0
01 03:15 NW 9 10.00 Mostly Cloudy BKN060 33.4 30 87% 27 30.07 0.0
01 02:55 N 8 10.00 A Few Clouds FEW060 33.6 29.1 84% 27 30.07 0.0
01 02:35 N 9 10.00 Partly Cloudy SCT055 34.5 28.8 80% 28 30.07 0.0
01 02:15 N 10 10.00 Mostly Cloudy BKN060 35.8 29.1 77% 29 30.08 0.0
01 01:55 N 14 10.00 Overcast OVC060 36.7 28.8 73% 29 30.08 0.0
01 01:35 N 13 10.00 Mostly Cloudy BKN060 37 28.9 73% 30 30.08 0.0
01 01:15 N 13 10.00 Mostly Cloudy BKN060 37.6 29.7 73% 30 30.08 0.0
01 00:55 N 14 10.00 Overcast OVC060 38.8 30.4 44.8 38.8 72% 31 30.08 0.0
01 00:35 N 15 10.00 Overcast OVC060 39.6 31.3 72% 32 30.07 0.0
01 00:15 N 13 10.00 Overcast OVC070 40.1 33.6 78% 33 30.07 0.0
30 23:55 N 12 10.00 Overcast OVC070 41.2 35.2 79% 35 30.06 0.0
30 23:35 N 9 10.00 Overcast OVC060 42.1 37 82% 37 30.06 0.0
30 23:15 N 9 10.00 Overcast OVC049 42.6 37.8 83% 38 30.06 0.0
30 22:55 NW 6 10.00 Overcast BKN049 OVC070 41.2 39.4 93% 38 30.06 0.0
30 22:35 W 3 10.00 Overcast BKN041 BKN055 OVC070 41.7 38.8 90% 30.06 0.0
30 22:15 S 3 10.00 Mostly Cloudy BKN038 BKN075 41.7 39.4 91% 30.05 0.0
30 21:55 W 6 10.00 Overcast BKN075 OVC100 42.1 39.9 92% 39 30.05 0.0
30 21:35 Calm 10.00 Overcast BKN080 OVC100 42.6 39.7 90% 30.04 0.0
30 21:15 Calm 10.00 Overcast SCT060 OVC080 43.3 40.1 88% 30.03 0.0
30 20:55 SW 3 10.00 Overcast FEW055 OVC080 44.2 38.5 80% 30.03 0.0
30 20:35 Calm 10.00 Overcast SCT065 OVC085 44.1 39.4 84% 30.03 0.0
30 20:15 Calm 10.00 Overcast OVC070 44.2 39.2 83% 30.02 0.0
30 19:55 Calm 10.00 Overcast FEW050 BKN060 OVC080 44.4 39 81% 30.02 0.0
30 19:35 Calm 10.00 Overcast FEW048 SCT060 BKN080 OVC100 44.6 38.8 80% 30.02 0.0
30 19:15 NE 6 10.00 Overcast SCT060 SCT070 OVC100 44.2 39.4 83% 41 30.02 0.0
30 18:55 E 6 10.00 Overcast SCT060 OVC085 44.8 39.4 53.1 44.2 81% 42 30.02 0.0 0.03
30 18:35 NE 8 10.00 Mostly Cloudy FEW050 BKN085 44.8 39.4 81% 41 30.02 0.0
30 18:15 NE 14 10.00 Mostly Cloudy FEW027 SCT033 BKN075 45 40.3 84% 39 30.02 0.0
30 17:55 N 18 9.00 Overcast SCT030 OVC055 46.2 39.9 79% 40 30.03 0.0 0.02
30 17:35 W 9 9.00 Overcast OVC060 47.3 38.3 71% 43 30.02 0.0 0.02
30 17:15 W 9 7.00 Overcast SCT021 BKN055 OVC065 45.1 40.3 83% 41 30.02 0.0 0.02
30 16:55 NW 20 G 23 4.00 Rain SCT022 BKN029 BKN049 BKN060 OVC090 45.7 38.7 77% 39 30.04 0.0 0.01
30 16:35 NW 6 10.00 Mostly Cloudy SCT055 BKN090 49.5 34.7 57% 48 30.02 0.0
30 16:15 NE 8 10.00 Partly Cloudy SCT060 SCT120 49.3 37.4 64% 46 30.02 0.0
30 15:55 N 14 8.00 Overcast FEW024 SCT045 OVC060 46.6 38.3 73% 41 30.04 0.0
30 15:35 NW 17 10.00 Overcast BKN045 OVC060 48.4 35.6 61% 43 30.05 0.0
30 15:15 N 3 6.00 Light Rain FEW019 SCT037 BKN048 OVC060 48 35.8 63% 30.04 0.0
30 14:55 W 17 10.00 Overcast FEW036 OVC050 50.4 30.6 47% 30.05 0.0
30 14:35 N 9 10.00 Overcast BKN055 BKN070 OVC085 49.8 29.1 45% 47 30.05 0.0
30 14:15 NW 18 G 22 10.00 Overcast BKN060 OVC080 51.8 28 40% 30.06 0.0
30 13:55 NW 18 10.00 Overcast BKN055 BKN070 OVC085 52 28.9 41% 30.06 0.0
30 13:35 NW 13 G 20 10.00 Mostly Cloudy BKN050 BKN060 51.3 29.8 44% 30.07 0.0
30 13:15 NW 13 10.00 Partly Cloudy SCT050 51.8 29.1 42% 30.08 0.0
30 12:55 N 7 10.00 Mostly Cloudy FEW046 BKN080 48.9 28.6 49.6 31.1 45% 46 30.09 0.0
30 12:35 W 10 10.00 Mostly Cloudy BKN085 48.6 28.6 46% 45 30.1 0.0
30 12:15 NW 9 G 17 10.00 Overcast FEW045 BKN090 OVC110 48.4 28.4 46% 45 30.11 0.0
30 11:55 W 9 10.00 Mostly Cloudy SCT060 BKN110 46 26.8 47% 42 30.12 0.0
30 11:35 NW 9 10.00 Mostly Cloudy BKN060 BKN100 44.8 26.6 49% 40 30.12 0.0
30 11:15 N 8 10.00 Mostly Cloudy BKN065 BKN095 44.4 27 50% 40 30.13 0.0
30 10:55 N 7 10.00 Mostly Cloudy BKN065 45 26.8 49% 42 30.13 0.0
30 10:35 N 8 10.00 Fair CLR 43.9 26.6 51% 40 30.13 0.0
30 10:15 N 10 10.00 Partly Cloudy SCT065 43.5 26.8 52% 38 30.13 0.0
30 09:55 N 10 10.00 Mostly Cloudy BKN070 42.1 26.4 54% 37 30.13 0.0
30 09:35 N 10 10.00 Overcast OVC070 40.8 26.8 57% 35 30.13 0.0
30 09:15 N 9 10.00 Mostly Cloudy BKN070 40.1 26.2 58% 35 30.14 0.0
30 08:55 N 9 10.00 Fair CLR 38.8 25 58% 33 30.13 0.0
30 08:35 N 8 10.00 Fair CLR 38.7 26.1 61% 34 30.13 0.0
30 08:15 N 9 10.00 Fair CLR 37.9 26.4 63% 32 30.13 0.0
30 07:55 N 5 9.00 A Few Clouds FEW060 35.4 29.7 80% 32 30.13 0.0
30 07:35 N 6 9.00 A Few Clouds FEW060 34.2 29.3 82% 30 30.13 0.0
30 07:15 NW 3 9.00 Fair CLR 31.8 28.9 89% 30.13 0.0
30 06:55 Calm 8.00 Fair CLR 30 27 39.7 27.9 88% 30.13 0.0
30 06:35 N 6 8.00 Fair CLR 27.9 25.9 92% 22 30.13 0.0
30 06:15 N 7 8.00 Fair CLR 28.2 25.9 91% 22 30.12 0.0
30 05:55 NW 7 10.00 Fair CLR 28.4 25.5 89% 22 30.12 0.0
30 05:35 N 6 9.00 Fair CLR 30 27.5 90% 25 30.13 0.0
30 05:15 NW 6 9.00 Fair CLR 30 27.5 90% 25 30.13 0.0
30 04:55 NW 6 10.00 Fair CLR 29.8 27.1 90% 25 30.12 0.0
30 04:35 NW 5 10.00 Fair CLR 31.3 27.9 87% 27 30.13 0.0
30 04:15 NW 5 10.00 A Few Clouds FEW080 33.1 28.4 83% 29 30.12 0.0
30 03:55 NW 6 10.00 Partly Cloudy SCT080 33.6 28.2 81% 29 30.12 0.0
30 03:35 N 8 10.00 Mostly Cloudy BKN080 34.5 28.8 80% 29 30.12 0.0
30 03:15 N 6 10.00 Mostly Cloudy BKN080 36.5 29.7 76% 32 30.12 0.0
30 02:55 N 7 10.00 Overcast OVC065 38.7 29.7 70% 34 30.12 0.0
30 02:35 N 6 10.00 Overcast OVC060 37.4 30.7 77% 33 30.11 0.0
30 02:15 N 6 10.00 Overcast SCT065 OVC090 37 29.8 75% 33 30.11 0.0
30 01:55 N 7 10.00 Overcast SCT075 OVC090 37.6 29.7 73% 33 30.11 0.0
30 01:35 N 7 10.00 Overcast SCT070 OVC090 37.9 29.5 72% 33 30.11 0.0
30 01:15 N 9 10.00 Overcast OVC075 39 29.1 68% 33 30.11 0.0
30 00:55 N 10 10.00 Overcast OVC080 39.7 29.3 54.5 39.7 66% 34 30.11 0.0
30 00:35 N 12 10.00 Overcast OVC085 40.3 29.8 66% 34 30.11 0.0
30 00:15 N 10 10.00 Overcast FEW065 OVC080 40.8 30 65% 35 30.1 0.0
29 23:55 N 10 10.00 Overcast BKN065 OVC080 41.5 30.4 65% 36 30.1 0.0
29 23:35 N 12 10.00 Overcast BKN065 OVC085 42.4 30 62% 37 30.1 0.0
29 23:15 N 13 10.00 Overcast OVC060 43.5 29.7 58% 38 30.1 0.0
29 22:55 N 10 10.00 Overcast OVC055 44.2 30.4 58% 39 30.09 0.0
29 22:35 N 8 10.00 Overcast OVC060 44.6 30.7 58% 41 30.09 0.0
29 22:15 N 9 10.00 Overcast OVC060 45 31.6 60% 41 30.08 0.0
29 21:55 N 7 10.00 Overcast BKN065 OVC080 43.9 32.5 64% 40 30.07 0.0
29 21:35 N 8 10.00 Overcast OVC080 46.2 31.8 57% 43 30.06 0.0
29 21:15 N 10 10.00 Overcast OVC080 47.3 31.5 54% 43 30.05 0.0
29 20:55 N 12 9.00 Overcast OVC075 48.2 32 54% 44 30.04 0.0
29 20:35 N 13 9.00 Mostly Cloudy BKN070 BKN085 48.7 32.4 53% 44 30.03 0.0
29 20:15 N 12 9.00 A Few Clouds FEW110 49.3 31.8 51% 45 30.03 0.0
29 19:55 N 13 9.00 Partly Cloudy SCT110 51.1 31.5 47% 30.02 0.0
29 19:35 N 15 9.00 Partly Cloudy SCT120 52.2 31.8 46% 30.02 0.0
29 19:15 N 14 10.00 Fair CLR 53.8 31.6 43% 30.02 0.0
29 18:55 N 13 10.00 A Few Clouds FEW065 55 32 57.9 52.7 42% 30.01 0.0
29 18:35 N 15 10.00 Partly Cloudy SCT065 55.8 32.5 41% 30.01 0.0
29 18:15 N 15 10.00 Mostly Cloudy BKN065 56.1 32.2 40% 30.01 0.0
29 17:55 N 10 10.00 Mostly Cloudy BKN065 57.2 31.3 37% 30.01 0.0
29 17:35 N 13 G 22 10.00 Partly Cloudy SCT065 57.9 31.3 36% 30.01 0.0
Date Time (cdt) Wind (mph) Vis. (mi.) Weather Sky Cond. Air Dwpt Max. Min. Relative Humidity Wind Chill (°F) Heat Index (°F) altimeter (in) sea level (mb) 1 hr 3 hr 6 hr
6 hour
Temperature (ºF) Pressure Precipitation (in)